sensor_id;sensor_type;location;lat;lon;timestamp;P1;durP1;ratioP1;P2;durP2;ratioP2
53052;SDS011;38934;52.690;6.184;2024-01-06T00:01:30;23.45;;;13.82;;
53052;SDS011;38934;52.690;6.184;2024-01-06T00:03:56;24.85;;;13.43;;
53052;SDS011;38934;52.690;6.184;2024-01-06T00:06:21;25.33;;;13.65;;
53052;SDS011;38934;52.690;6.184;2024-01-06T00:08:47;23.25;;;13.93;;
53052;SDS011;38934;52.690;6.184;2024-01-06T00:11:19;24.80;;;13.35;;
53052;SDS011;38934;52.690;6.184;2024-01-06T00:13:45;25.40;;;13.80;;
53052;SDS011;38934;52.690;6.184;2024-01-06T00:16:11;25.08;;;13.38;;
53052;SDS011;38934;52.690;6.184;2024-01-06T00:18:37;26.85;;;14.60;;
53052;SDS011;38934;52.690;6.184;2024-01-06T00:21:03;25.92;;;14.50;;
53052;SDS011;38934;52.690;6.184;2024-01-06T00:23:29;23.75;;;13.25;;
53052;SDS011;38934;52.690;6.184;2024-01-06T00:25:56;27.13;;;17.58;;
53052;SDS011;38934;52.690;6.184;2024-01-06T00:28:22;24.92;;;12.77;;
53052;SDS011;38934;52.690;6.184;2024-01-06T00:30:48;26.38;;;14.50;;
53052;SDS011;38934;52.690;6.184;2024-01-06T00:33:14;25.20;;;13.60;;
53052;SDS011;38934;52.690;6.184;2024-01-06T00:35:40;25.88;;;13.82;;
53052;SDS011;38934;52.690;6.184;2024-01-06T00:38:06;26.27;;;14.32;;
53052;SDS011;38934;52.690;6.184;2024-01-06T00:40:32;25.55;;;14.05;;
53052;SDS011;38934;52.690;6.184;2024-01-06T00:42:59;27.40;;;14.90;;
53052;SDS011;38934;52.690;6.184;2024-01-06T00:45:24;24.65;;;13.57;;
53052;SDS011;38934;52.690;6.184;2024-01-06T00:47:51;24.00;;;13.82;;
53052;SDS011;38934;52.690;6.184;2024-01-06T00:50:17;27.15;;;14.25;;
53052;SDS011;38934;52.690;6.184;2024-01-06T00:52:44;26.77;;;13.63;;
53052;SDS011;38934;52.690;6.184;2024-01-06T00:55:10;24.60;;;13.57;;
53052;SDS011;38934;52.690;6.184;2024-01-06T00:57:36;27.70;;;14.50;;
53052;SDS011;38934;52.690;6.184;2024-01-06T01:00:05;26.23;;;13.75;;
53052;SDS011;38934;52.690;6.184;2024-01-06T01:02:31;29.95;;;15.20;;
53052;SDS011;38934;52.690;6.184;2024-01-06T01:04:57;27.33;;;14.48;;
53052;SDS011;38934;52.690;6.184;2024-01-06T01:07:24;28.10;;;14.57;;
53052;SDS011;38934;52.690;6.184;2024-01-06T01:09:50;31.88;;;17.02;;
53052;SDS011;38934;52.690;6.184;2024-01-06T01:12:16;28.48;;;17.20;;
53052;SDS011;38934;52.690;6.184;2024-01-06T01:14:42;27.98;;;14.73;;
53052;SDS011;38934;52.690;6.184;2024-01-06T01:17:08;28.75;;;15.48;;
53052;SDS011;38934;52.690;6.184;2024-01-06T01:19:34;28.70;;;16.05;;
53052;SDS011;38934;52.690;6.184;2024-01-06T01:22:00;28.38;;;15.30;;
53052;SDS011;38934;52.690;6.184;2024-01-06T01:24:26;30.85;;;15.95;;
53052;SDS011;38934;52.690;6.184;2024-01-06T01:26:52;33.05;;;17.52;;
53052;SDS011;38934;52.690;6.184;2024-01-06T01:29:18;31.60;;;16.77;;
53052;SDS011;38934;52.690;6.184;2024-01-06T01:31:45;34.10;;;17.08;;
53052;SDS011;38934;52.690;6.184;2024-01-06T01:34:12;32.13;;;17.98;;
53052;SDS011;38934;52.690;6.184;2024-01-06T01:36:38;37.38;;;19.00;;
53052;SDS011;38934;52.690;6.184;2024-01-06T01:39:04;34.90;;;17.63;;
53052;SDS011;38934;52.690;6.184;2024-01-06T01:41:30;31.95;;;16.02;;
53052;SDS011;38934;52.690;6.184;2024-01-06T01:43:56;32.13;;;16.92;;
53052;SDS011;38934;52.690;6.184;2024-01-06T01:46:25;35.33;;;17.15;;
53052;SDS011;38934;52.690;6.184;2024-01-06T01:48:52;34.42;;;17.60;;
53052;SDS011;38934;52.690;6.184;2024-01-06T01:51:20;35.47;;;20.23;;
53052;SDS011;38934;52.690;6.184;2024-01-06T01:53:46;37.92;;;18.00;;
53052;SDS011;38934;52.690;6.184;2024-01-06T01:56:12;40.90;;;18.27;;
53052;SDS011;38934;52.690;6.184;2024-01-06T01:58:40;37.67;;;17.88;;
53052;SDS011;38934;52.690;6.184;2024-01-06T02:01:07;37.83;;;18.52;;
53052;SDS011;38934;52.690;6.184;2024-01-06T02:03:33;36.15;;;18.02;;
53052;SDS011;38934;52.690;6.184;2024-01-06T02:05:59;38.58;;;17.90;;
53052;SDS011;38934;52.690;6.184;2024-01-06T02:08:25;37.88;;;18.90;;
53052;SDS011;38934;52.690;6.184;2024-01-06T02:10:52;35.15;;;17.98;;
53052;SDS011;38934;52.690;6.184;2024-01-06T02:13:18;33.97;;;17.42;;
53052;SDS011;38934;52.690;6.184;2024-01-06T02:15:44;33.03;;;17.90;;
53052;SDS011;38934;52.690;6.184;2024-01-06T02:18:13;36.15;;;19.27;;
53052;SDS011;38934;52.690;6.184;2024-01-06T02:20:39;34.35;;;18.92;;
53052;SDS011;38934;52.690;6.184;2024-01-06T02:23:06;34.58;;;18.70;;
53052;SDS011;38934;52.690;6.184;2024-01-06T02:25:32;34.20;;;17.70;;
53052;SDS011;38934;52.690;6.184;2024-01-06T02:28:00;36.38;;;18.77;;
53052;SDS011;38934;52.690;6.184;2024-01-06T02:30:26;32.60;;;17.40;;
53052;SDS011;38934;52.690;6.184;2024-01-06T02:32:52;31.27;;;17.52;;
53052;SDS011;38934;52.690;6.184;2024-01-06T02:35:18;33.95;;;16.40;;
53052;SDS011;38934;52.690;6.184;2024-01-06T02:37:44;34.22;;;16.92;;
53052;SDS011;38934;52.690;6.184;2024-01-06T02:40:10;37.67;;;17.70;;
53052;SDS011;38934;52.690;6.184;2024-01-06T02:42:36;35.08;;;17.50;;
53052;SDS011;38934;52.690;6.184;2024-01-06T02:45:03;34.92;;;17.75;;
53052;SDS011;38934;52.690;6.184;2024-01-06T02:47:29;34.08;;;16.25;;
53052;SDS011;38934;52.690;6.184;2024-01-06T02:49:55;31.20;;;14.90;;
53052;SDS011;38934;52.690;6.184;2024-01-06T02:52:21;37.00;;;18.35;;
53052;SDS011;38934;52.690;6.184;2024-01-06T02:54:47;32.53;;;17.75;;
53052;SDS011;38934;52.690;6.184;2024-01-06T02:57:13;31.40;;;16.02;;
53052;SDS011;38934;52.690;6.184;2024-01-06T02:59:40;33.33;;;17.23;;
53052;SDS011;38934;52.690;6.184;2024-01-06T03:02:06;30.52;;;15.55;;
53052;SDS011;38934;52.690;6.184;2024-01-06T03:04:32;35.97;;;17.90;;
53052;SDS011;38934;52.690;6.184;2024-01-06T03:06:58;34.85;;;16.30;;
53052;SDS011;38934;52.690;6.184;2024-01-06T03:09:24;32.83;;;15.90;;
53052;SDS011;38934;52.690;6.184;2024-01-06T03:11:50;31.98;;;16.77;;
53052;SDS011;38934;52.690;6.184;2024-01-06T03:14:16;33.80;;;17.02;;
53052;SDS011;38934;52.690;6.184;2024-01-06T03:16:42;30.42;;;16.40;;
53052;SDS011;38934;52.690;6.184;2024-01-06T03:19:08;31.42;;;15.73;;
53052;SDS011;38934;52.690;6.184;2024-01-06T03:21:34;33.28;;;16.13;;
53052;SDS011;38934;52.690;6.184;2024-01-06T03:24:00;27.75;;;15.95;;
53052;SDS011;38934;52.690;6.184;2024-01-06T03:26:26;35.08;;;16.27;;
53052;SDS011;38934;52.690;6.184;2024-01-06T03:28:54;29.88;;;15.77;;
53052;SDS011;38934;52.690;6.184;2024-01-06T03:31:20;30.63;;;14.88;;
53052;SDS011;38934;52.690;6.184;2024-01-06T03:33:47;31.70;;;16.25;;
53052;SDS011;38934;52.690;6.184;2024-01-06T03:36:13;32.63;;;16.48;;
53052;SDS011;38934;52.690;6.184;2024-01-06T03:38:41;34.67;;;17.10;;
53052;SDS011;38934;52.690;6.184;2024-01-06T03:41:07;34.50;;;16.52;;
53052;SDS011;38934;52.690;6.184;2024-01-06T03:43:33;30.58;;;16.35;;
53052;SDS011;38934;52.690;6.184;2024-01-06T03:45:59;32.70;;;16.75;;
53052;SDS011;38934;52.690;6.184;2024-01-06T03:48:26;36.13;;;17.08;;
53052;SDS011;38934;52.690;6.184;2024-01-06T03:50:52;31.63;;;16.17;;
53052;SDS011;38934;52.690;6.184;2024-01-06T03:53:18;34.88;;;17.70;;
53052;SDS011;38934;52.690;6.184;2024-01-06T03:55:44;30.88;;;15.65;;
53052;SDS011;38934;52.690;6.184;2024-01-06T03:58:10;31.75;;;17.73;;
53052;SDS011;38934;52.690;6.184;2024-01-06T04:00:36;29.83;;;15.68;;
53052;SDS011;38934;52.690;6.184;2024-01-06T04:03:02;30.33;;;16.00;;
53052;SDS011;38934;52.690;6.184;2024-01-06T04:05:28;29.40;;;15.35;;
53052;SDS011;38934;52.690;6.184;2024-01-06T04:07:54;29.70;;;15.90;;
53052;SDS011;38934;52.690;6.184;2024-01-06T04:10:20;28.70;;;16.45;;
53052;SDS011;38934;52.690;6.184;2024-01-06T04:12:46;29.52;;;15.35;;
53052;SDS011;38934;52.690;6.184;2024-01-06T04:15:12;30.75;;;16.60;;
53052;SDS011;38934;52.690;6.184;2024-01-06T04:17:38;33.22;;;16.75;;
53052;SDS011;38934;52.690;6.184;2024-01-06T04:20:04;30.63;;;16.48;;
53052;SDS011;38934;52.690;6.184;2024-01-06T04:22:30;27.63;;;15.52;;
53052;SDS011;38934;52.690;6.184;2024-01-06T04:24:56;29.20;;;16.40;;
53052;SDS011;38934;52.690;6.184;2024-01-06T04:27:22;30.30;;;16.30;;
53052;SDS011;38934;52.690;6.184;2024-01-06T04:29:48;30.70;;;16.48;;
53052;SDS011;38934;52.690;6.184;2024-01-06T04:32:18;29.23;;;19.58;;
53052;SDS011;38934;52.690;6.184;2024-01-06T04:34:44;29.95;;;16.08;;
53052;SDS011;38934;52.690;6.184;2024-01-06T04:37:09;31.65;;;17.42;;
53052;SDS011;38934;52.690;6.184;2024-01-06T04:39:35;28.50;;;15.43;;
53052;SDS011;38934;52.690;6.184;2024-01-06T04:42:01;28.13;;;15.05;;
53052;SDS011;38934;52.690;6.184;2024-01-06T04:44:27;30.95;;;15.88;;
53052;SDS011;38934;52.690;6.184;2024-01-06T04:46:53;30.73;;;17.17;;
53052;SDS011;38934;52.690;6.184;2024-01-06T04:49:20;27.55;;;14.88;;
53052;SDS011;38934;52.690;6.184;2024-01-06T04:51:46;28.95;;;15.82;;
53052;SDS011;38934;52.690;6.184;2024-01-06T04:54:13;28.30;;;14.77;;
53052;SDS011;38934;52.690;6.184;2024-01-06T04:56:39;30.20;;;15.88;;
53052;SDS011;38934;52.690;6.184;2024-01-06T04:59:05;31.15;;;15.90;;
53052;SDS011;38934;52.690;6.184;2024-01-06T05:01:31;31.83;;;16.35;;
53052;SDS011;38934;52.690;6.184;2024-01-06T05:03:57;31.75;;;17.33;;
53052;SDS011;38934;52.690;6.184;2024-01-06T05:06:24;31.65;;;16.83;;
53052;SDS011;38934;52.690;6.184;2024-01-06T05:08:50;30.50;;;17.00;;
53052;SDS011;38934;52.690;6.184;2024-01-06T05:11:16;34.22;;;16.83;;
53052;SDS011;38934;52.690;6.184;2024-01-06T05:13:42;35.40;;;16.95;;
53052;SDS011;38934;52.690;6.184;2024-01-06T05:16:08;34.67;;;17.13;;
53052;SDS011;38934;52.690;6.184;2024-01-06T05:18:34;34.97;;;17.85;;
53052;SDS011;38934;52.690;6.184;2024-01-06T05:21:00;32.20;;;16.88;;
53052;SDS011;38934;52.690;6.184;2024-01-06T05:23:27;33.50;;;17.80;;
53052;SDS011;38934;52.690;6.184;2024-01-06T05:25:53;32.25;;;17.10;;
53052;SDS011;38934;52.690;6.184;2024-01-06T05:28:19;35.95;;;18.17;;
53052;SDS011;38934;52.690;6.184;2024-01-06T05:30:44;32.72;;;17.00;;
53052;SDS011;38934;52.690;6.184;2024-01-06T05:33:11;30.55;;;16.45;;
53052;SDS011;38934;52.690;6.184;2024-01-06T05:35:40;35.55;;;16.25;;
53052;SDS011;38934;52.690;6.184;2024-01-06T05:38:06;32.45;;;17.65;;
53052;SDS011;38934;52.690;6.184;2024-01-06T05:40:32;33.80;;;16.90;;
53052;SDS011;38934;52.690;6.184;2024-01-06T05:42:58;39.15;;;21.90;;
53052;SDS011;38934;52.690;6.184;2024-01-06T05:45:25;31.83;;;17.27;;
53052;SDS011;38934;52.690;6.184;2024-01-06T05:47:51;33.72;;;17.85;;
53052;SDS011;38934;52.690;6.184;2024-01-06T05:50:17;36.08;;;17.00;;
53052;SDS011;38934;52.690;6.184;2024-01-06T05:52:43;35.53;;;17.08;;
53052;SDS011;38934;52.690;6.184;2024-01-06T05:55:12;31.23;;;15.60;;
53052;SDS011;38934;52.690;6.184;2024-01-06T05:57:38;34.28;;;17.70;;
53052;SDS011;38934;52.690;6.184;2024-01-06T06:00:07;33.30;;;16.50;;
53052;SDS011;38934;52.690;6.184;2024-01-06T06:02:33;33.42;;;17.50;;
53052;SDS011;38934;52.690;6.184;2024-01-06T06:04:59;33.05;;;18.33;;
53052;SDS011;38934;52.690;6.184;2024-01-06T06:07:25;28.25;;;15.13;;
53052;SDS011;38934;52.690;6.184;2024-01-06T06:09:51;30.60;;;17.33;;
53052;SDS011;38934;52.690;6.184;2024-01-06T06:12:18;28.17;;;13.82;;
53052;SDS011;38934;52.690;6.184;2024-01-06T06:14:44;30.02;;;15.10;;
53052;SDS011;38934;52.690;6.184;2024-01-06T06:17:10;28.83;;;15.45;;
53052;SDS011;38934;52.690;6.184;2024-01-06T06:19:36;31.60;;;15.55;;
53052;SDS011;38934;52.690;6.184;2024-01-06T06:22:03;30.17;;;15.40;;
53052;SDS011;38934;52.690;6.184;2024-01-06T06:24:29;31.70;;;16.05;;
53052;SDS011;38934;52.690;6.184;2024-01-06T06:26:55;31.30;;;17.05;;
53052;SDS011;38934;52.690;6.184;2024-01-06T06:29:21;32.55;;;16.10;;
53052;SDS011;38934;52.690;6.184;2024-01-06T06:31:47;32.92;;;17.33;;
53052;SDS011;38934;52.690;6.184;2024-01-06T06:34:13;36.53;;;16.23;;
53052;SDS011;38934;52.690;6.184;2024-01-06T06:36:39;44.03;;;20.08;;
53052;SDS011;38934;52.690;6.184;2024-01-06T06:39:05;42.03;;;20.02;;
53052;SDS011;38934;52.690;6.184;2024-01-06T06:41:32;39.95;;;20.58;;
53052;SDS011;38934;52.690;6.184;2024-01-06T06:43:58;42.08;;;18.02;;
53052;SDS011;38934;52.690;6.184;2024-01-06T06:46:25;42.75;;;21.27;;
53052;SDS011;38934;52.690;6.184;2024-01-06T06:48:51;40.80;;;20.23;;
53052;SDS011;38934;52.690;6.184;2024-01-06T06:51:17;38.58;;;18.55;;
53052;SDS011;38934;52.690;6.184;2024-01-06T06:53:43;40.22;;;18.40;;
53052;SDS011;38934;52.690;6.184;2024-01-06T06:56:09;34.92;;;17.58;;
53052;SDS011;38934;52.690;6.184;2024-01-06T06:58:35;43.03;;;18.25;;
53052;SDS011;38934;52.690;6.184;2024-01-06T07:01:01;41.53;;;19.13;;
53052;SDS011;38934;52.690;6.184;2024-01-06T07:03:27;35.20;;;17.60;;
53052;SDS011;38934;52.690;6.184;2024-01-06T07:05:53;37.25;;;17.10;;
53052;SDS011;38934;52.690;6.184;2024-01-06T07:08:19;35.50;;;17.77;;
53052;SDS011;38934;52.690;6.184;2024-01-06T07:10:48;35.92;;;17.75;;
53052;SDS011;38934;52.690;6.184;2024-01-06T07:13:14;33.95;;;17.80;;
53052;SDS011;38934;52.690;6.184;2024-01-06T07:15:40;34.03;;;18.08;;
53052;SDS011;38934;52.690;6.184;2024-01-06T07:18:07;35.05;;;16.88;;
53052;SDS011;38934;52.690;6.184;2024-01-06T07:20:33;35.40;;;16.60;;
53052;SDS011;38934;52.690;6.184;2024-01-06T07:22:58;37.30;;;18.15;;
53052;SDS011;38934;52.690;6.184;2024-01-06T07:25:24;37.83;;;18.52;;
53052;SDS011;38934;52.690;6.184;2024-01-06T07:27:51;36.97;;;18.52;;
53052;SDS011;38934;52.690;6.184;2024-01-06T07:30:17;33.97;;;18.30;;
53052;SDS011;38934;52.690;6.184;2024-01-06T07:32:43;38.30;;;17.77;;
53052;SDS011;38934;52.690;6.184;2024-01-06T07:35:09;34.47;;;18.55;;
53052;SDS011;38934;52.690;6.184;2024-01-06T07:37:35;31.98;;;17.40;;
53052;SDS011;38934;52.690;6.184;2024-01-06T07:40:01;30.27;;;16.63;;
53052;SDS011;38934;52.690;6.184;2024-01-06T07:42:27;34.92;;;17.48;;
53052;SDS011;38934;52.690;6.184;2024-01-06T07:44:53;34.95;;;17.77;;
53052;SDS011;38934;52.690;6.184;2024-01-06T07:47:19;31.92;;;16.33;;
53052;SDS011;38934;52.690;6.184;2024-01-06T07:49:45;30.95;;;16.27;;
53052;SDS011;38934;52.690;6.184;2024-01-06T07:52:12;32.00;;;16.45;;
53052;SDS011;38934;52.690;6.184;2024-01-06T07:54:38;30.70;;;16.63;;
53052;SDS011;38934;52.690;6.184;2024-01-06T07:57:04;32.88;;;17.42;;
53052;SDS011;38934;52.690;6.184;2024-01-06T07:59:30;29.77;;;15.35;;
53052;SDS011;38934;52.690;6.184;2024-01-06T08:01:56;31.17;;;17.23;;
53052;SDS011;38934;52.690;6.184;2024-01-06T08:04:23;30.00;;;16.10;;
53052;SDS011;38934;52.690;6.184;2024-01-06T08:06:49;30.45;;;15.73;;
53052;SDS011;38934;52.690;6.184;2024-01-06T08:09:15;32.08;;;15.80;;
53052;SDS011;38934;52.690;6.184;2024-01-06T08:11:41;30.92;;;16.02;;
53052;SDS011;38934;52.690;6.184;2024-01-06T08:14:10;29.50;;;16.80;;
53052;SDS011;38934;52.690;6.184;2024-01-06T08:16:36;30.48;;;17.02;;
53052;SDS011;38934;52.690;6.184;2024-01-06T08:19:02;26.63;;;14.82;;
53052;SDS011;38934;52.690;6.184;2024-01-06T08:21:29;26.85;;;16.17;;
53052;SDS011;38934;52.690;6.184;2024-01-06T08:23:55;25.15;;;13.82;;
53052;SDS011;38934;52.690;6.184;2024-01-06T08:26:21;30.52;;;17.65;;
53052;SDS011;38934;52.690;6.184;2024-01-06T08:28:47;26.00;;;15.43;;
53052;SDS011;38934;52.690;6.184;2024-01-06T08:31:13;26.35;;;14.95;;
53052;SDS011;38934;52.690;6.184;2024-01-06T08:33:39;30.60;;;15.35;;
53052;SDS011;38934;52.690;6.184;2024-01-06T08:36:05;25.13;;;15.82;;
53052;SDS011;38934;52.690;6.184;2024-01-06T08:38:31;26.10;;;15.40;;
53052;SDS011;38934;52.690;6.184;2024-01-06T08:40:57;26.65;;;16.02;;
53052;SDS011;38934;52.690;6.184;2024-01-06T08:43:23;29.35;;;15.18;;
53052;SDS011;38934;52.690;6.184;2024-01-06T08:45:49;29.38;;;16.23;;
53052;SDS011;38934;52.690;6.184;2024-01-06T08:48:16;25.80;;;16.33;;
53052;SDS011;38934;52.690;6.184;2024-01-06T08:50:43;26.27;;;15.88;;
53052;SDS011;38934;52.690;6.184;2024-01-06T08:53:10;25.05;;;15.00;;
53052;SDS011;38934;52.690;6.184;2024-01-06T08:55:36;26.00;;;14.68;;
53052;SDS011;38934;52.690;6.184;2024-01-06T08:58:02;27.17;;;15.27;;
53052;SDS011;38934;52.690;6.184;2024-01-06T09:00:28;27.38;;;16.63;;
53052;SDS011;38934;52.690;6.184;2024-01-06T09:02:54;26.45;;;15.15;;
53052;SDS011;38934;52.690;6.184;2024-01-06T09:05:20;24.75;;;15.35;;
53052;SDS011;38934;52.690;6.184;2024-01-06T09:07:46;26.52;;;15.73;;
53052;SDS011;38934;52.690;6.184;2024-01-06T09:10:15;26.00;;;15.43;;
53052;SDS011;38934;52.690;6.184;2024-01-06T09:12:41;23.45;;;13.70;;
53052;SDS011;38934;52.690;6.184;2024-01-06T09:15:08;24.58;;;16.25;;
53052;SDS011;38934;52.690;6.184;2024-01-06T09:17:35;25.48;;;15.23;;
53052;SDS011;38934;52.690;6.184;2024-01-06T09:20:01;24.88;;;15.00;;
53052;SDS011;38934;52.690;6.184;2024-01-06T09:22:28;24.48;;;16.75;;
53052;SDS011;38934;52.690;6.184;2024-01-06T09:24:54;25.95;;;17.00;;
53052;SDS011;38934;52.690;6.184;2024-01-06T09:27:20;24.05;;;14.43;;
53052;SDS011;38934;52.690;6.184;2024-01-06T09:29:46;27.35;;;16.98;;
53052;SDS011;38934;52.690;6.184;2024-01-06T09:32:12;25.52;;;15.32;;
53052;SDS011;38934;52.690;6.184;2024-01-06T09:34:39;23.90;;;15.05;;
53052;SDS011;38934;52.690;6.184;2024-01-06T09:37:05;27.55;;;16.00;;
53052;SDS011;38934;52.690;6.184;2024-01-06T09:39:31;27.15;;;16.10;;
53052;SDS011;38934;52.690;6.184;2024-01-06T09:41:57;29.15;;;17.38;;
53052;SDS011;38934;52.690;6.184;2024-01-06T09:44:23;29.10;;;17.17;;
53052;SDS011;38934;52.690;6.184;2024-01-06T09:46:49;28.48;;;16.50;;
53052;SDS011;38934;52.690;6.184;2024-01-06T09:49:20;28.30;;;16.23;;
53052;SDS011;38934;52.690;6.184;2024-01-06T09:51:47;31.25;;;22.25;;
53052;SDS011;38934;52.690;6.184;2024-01-06T09:54:16;29.10;;;16.50;;
53052;SDS011;38934;52.690;6.184;2024-01-06T09:56:45;27.90;;;16.90;;
53052;SDS011;38934;52.690;6.184;2024-01-06T09:59:12;30.13;;;17.60;;
53052;SDS011;38934;52.690;6.184;2024-01-06T10:01:38;28.38;;;17.33;;
53052;SDS011;38934;52.690;6.184;2024-01-06T10:04:04;31.23;;;18.90;;
53052;SDS011;38934;52.690;6.184;2024-01-06T10:06:30;29.23;;;18.25;;
53052;SDS011;38934;52.690;6.184;2024-01-06T10:08:56;33.10;;;19.58;;
53052;SDS011;38934;52.690;6.184;2024-01-06T10:11:22;28.02;;;17.75;;
53052;SDS011;38934;52.690;6.184;2024-01-06T10:13:49;32.60;;;19.50;;
53052;SDS011;38934;52.690;6.184;2024-01-06T10:16:15;27.25;;;16.95;;
53052;SDS011;38934;52.690;6.184;2024-01-06T10:18:41;29.35;;;17.65;;
53052;SDS011;38934;52.690;6.184;2024-01-06T10:21:09;30.73;;;20.15;;
53052;SDS011;38934;52.690;6.184;2024-01-06T10:23:35;28.40;;;17.35;;
53052;SDS011;38934;52.690;6.184;2024-01-06T10:26:02;31.75;;;18.90;;
53052;SDS011;38934;52.690;6.184;2024-01-06T10:28:28;31.50;;;19.77;;
53052;SDS011;38934;52.690;6.184;2024-01-06T10:30:54;30.65;;;18.38;;
53052;SDS011;38934;52.690;6.184;2024-01-06T10:33:25;29.73;;;18.50;;
53052;SDS011;38934;52.690;6.184;2024-01-06T10:35:52;30.20;;;18.75;;
53052;SDS011;38934;52.690;6.184;2024-01-06T10:38:20;30.00;;;17.55;;
53052;SDS011;38934;52.690;6.184;2024-01-06T10:41:02;32.17;;;17.42;;
53052;SDS011;38934;52.690;6.184;2024-01-06T10:43:32;30.38;;;18.75;;
53052;SDS011;38934;52.690;6.184;2024-01-06T10:46:02;28.00;;;16.77;;
53052;SDS011;38934;52.690;6.184;2024-01-06T10:48:32;29.83;;;18.95;;
53052;SDS011;38934;52.690;6.184;2024-01-06T10:50:58;31.90;;;20.25;;
53052;SDS011;38934;52.690;6.184;2024-01-06T10:53:26;27.00;;;16.88;;
53052;SDS011;38934;52.690;6.184;2024-01-06T10:55:52;25.75;;;16.85;;
53052;SDS011;38934;52.690;6.184;2024-01-06T10:58:18;23.45;;;14.48;;
53052;SDS011;38934;52.690;6.184;2024-01-06T11:00:45;22.88;;;14.98;;
53052;SDS011;38934;52.690;6.184;2024-01-06T11:03:13;22.55;;;14.27;;
53052;SDS011;38934;52.690;6.184;2024-01-06T11:05:40;21.75;;;13.30;;
53052;SDS011;38934;52.690;6.184;2024-01-06T11:08:06;23.02;;;14.10;;
53052;SDS011;38934;52.690;6.184;2024-01-06T11:10:33;23.30;;;15.25;;
53052;SDS011;38934;52.690;6.184;2024-01-06T11:13:14;19.85;;;13.32;;
53052;SDS011;38934;52.690;6.184;2024-01-06T11:15:49;23.73;;;14.63;;
53052;SDS011;38934;52.690;6.184;2024-01-06T11:18:31;24.30;;;16.02;;
53052;SDS011;38934;52.690;6.184;2024-01-06T11:23:24;23.90;;;14.35;;
53052;SDS011;38934;52.690;6.184;2024-01-06T11:25:52;23.38;;;15.10;;
53052;SDS011;38934;52.690;6.184;2024-01-06T11:28:18;20.80;;;14.52;;
53052;SDS011;38934;52.690;6.184;2024-01-06T11:30:44;23.35;;;14.13;;
53052;SDS011;38934;52.690;6.184;2024-01-06T11:33:10;20.33;;;12.82;;
53052;SDS011;38934;52.690;6.184;2024-01-06T11:35:37;24.27;;;16.25;;
53052;SDS011;38934;52.690;6.184;2024-01-06T11:38:06;20.55;;;13.07;;
53052;SDS011;38934;52.690;6.184;2024-01-06T11:40:35;25.30;;;15.52;;
53052;SDS011;38934;52.690;6.184;2024-01-06T11:43:03;22.23;;;14.50;;
53052;SDS011;38934;52.690;6.184;2024-01-06T11:45:30;21.77;;;14.95;;
53052;SDS011;38934;52.690;6.184;2024-01-06T11:48:04;22.15;;;14.85;;
53052;SDS011;38934;52.690;6.184;2024-01-06T11:50:34;26.55;;;15.20;;
53052;SDS011;38934;52.690;6.184;2024-01-06T11:53:01;23.80;;;14.38;;
53052;SDS011;38934;52.690;6.184;2024-01-06T11:55:27;22.98;;;15.10;;
53052;SDS011;38934;52.690;6.184;2024-01-06T11:57:56;22.65;;;14.25;;
53052;SDS011;38934;52.690;6.184;2024-01-06T12:00:26;22.10;;;13.80;;
53052;SDS011;38934;52.690;6.184;2024-01-06T12:02:56;23.08;;;15.18;;
53052;SDS011;38934;52.690;6.184;2024-01-06T12:05:23;21.48;;;13.60;;
53052;SDS011;38934;52.690;6.184;2024-01-06T12:08:01;24.90;;;14.65;;
53052;SDS011;38934;52.690;6.184;2024-01-06T12:10:29;21.38;;;13.75;;
53052;SDS011;38934;52.690;6.184;2024-01-06T12:13:00;25.20;;;16.17;;
53052;SDS011;38934;52.690;6.184;2024-01-06T12:15:29;23.17;;;14.43;;
53052;SDS011;38934;52.690;6.184;2024-01-06T12:17:56;23.75;;;14.63;;
53052;SDS011;38934;52.690;6.184;2024-01-06T12:20:23;22.08;;;13.82;;
53052;SDS011;38934;52.690;6.184;2024-01-06T12:22:50;22.63;;;14.60;;
53052;SDS011;38934;52.690;6.184;2024-01-06T12:25:17;19.70;;;13.50;;
53052;SDS011;38934;52.690;6.184;2024-01-06T12:27:43;20.92;;;13.77;;
53052;SDS011;38934;52.690;6.184;2024-01-06T12:30:13;22.55;;;14.02;;
53052;SDS011;38934;52.690;6.184;2024-01-06T12:32:42;23.38;;;14.95;;
53052;SDS011;38934;52.690;6.184;2024-01-06T12:35:08;24.45;;;15.05;;
53052;SDS011;38934;52.690;6.184;2024-01-06T12:37:35;22.17;;;15.13;;
53052;SDS011;38934;52.690;6.184;2024-01-06T12:40:01;24.70;;;15.52;;
53052;SDS011;38934;52.690;6.184;2024-01-06T12:42:27;24.30;;;15.57;;
53052;SDS011;38934;52.690;6.184;2024-01-06T12:44:53;24.85;;;15.23;;
53052;SDS011;38934;52.690;6.184;2024-01-06T12:47:19;24.60;;;16.20;;
53052;SDS011;38934;52.690;6.184;2024-01-06T12:49:45;24.70;;;15.07;;
53052;SDS011;38934;52.690;6.184;2024-01-06T12:52:11;23.90;;;15.13;;
53052;SDS011;38934;52.690;6.184;2024-01-06T12:54:39;24.35;;;16.13;;
53052;SDS011;38934;52.690;6.184;2024-01-06T12:57:05;23.05;;;15.13;;
53052;SDS011;38934;52.690;6.184;2024-01-06T12:59:31;24.20;;;15.63;;
53052;SDS011;38934;52.690;6.184;2024-01-06T13:01:57;24.95;;;15.48;;
53052;SDS011;38934;52.690;6.184;2024-01-06T13:04:24;24.15;;;15.80;;
53052;SDS011;38934;52.690;6.184;2024-01-06T13:06:50;24.42;;;14.68;;
53052;SDS011;38934;52.690;6.184;2024-01-06T13:09:16;21.50;;;13.15;;
53052;SDS011;38934;52.690;6.184;2024-01-06T13:11:42;21.08;;;14.27;;
53052;SDS011;38934;52.690;6.184;2024-01-06T13:14:11;23.83;;;15.25;;
53052;SDS011;38934;52.690;6.184;2024-01-06T13:16:37;21.10;;;14.18;;
53052;SDS011;38934;52.690;6.184;2024-01-06T13:19:03;23.35;;;14.32;;
53052;SDS011;38934;52.690;6.184;2024-01-06T13:21:29;22.65;;;14.60;;
53052;SDS011;38934;52.690;6.184;2024-01-06T13:23:55;20.90;;;13.75;;
53052;SDS011;38934;52.690;6.184;2024-01-06T13:26:27;21.40;;;14.43;;
53052;SDS011;38934;52.690;6.184;2024-01-06T13:28:54;24.05;;;14.90;;
53052;SDS011;38934;52.690;6.184;2024-01-06T13:31:20;21.70;;;13.50;;
53052;SDS011;38934;52.690;6.184;2024-01-06T13:33:46;23.13;;;13.43;;
53052;SDS011;38934;52.690;6.184;2024-01-06T13:36:12;22.52;;;14.00;;
53052;SDS011;38934;52.690;6.184;2024-01-06T13:38:38;22.27;;;14.30;;
53052;SDS011;38934;52.690;6.184;2024-01-06T13:41:04;19.77;;;13.52;;
53052;SDS011;38934;52.690;6.184;2024-01-06T13:43:32;23.52;;;14.18;;
53052;SDS011;38934;52.690;6.184;2024-01-06T13:45:58;21.10;;;13.75;;
53052;SDS011;38934;52.690;6.184;2024-01-06T13:48:24;21.42;;;14.02;;
53052;SDS011;38934;52.690;6.184;2024-01-06T13:50:50;23.15;;;14.68;;
53052;SDS011;38934;52.690;6.184;2024-01-06T13:53:16;20.58;;;13.68;;
53052;SDS011;38934;52.690;6.184;2024-01-06T13:55:42;21.45;;;14.43;;
53052;SDS011;38934;52.690;6.184;2024-01-06T13:58:08;20.75;;;13.75;;
53052;SDS011;38934;52.690;6.184;2024-01-06T14:00:34;19.33;;;12.93;;
53052;SDS011;38934;52.690;6.184;2024-01-06T14:03:00;20.45;;;13.70;;
53052;SDS011;38934;52.690;6.184;2024-01-06T14:05:27;18.75;;;13.07;;
53052;SDS011;38934;52.690;6.184;2024-01-06T14:07:53;19.60;;;13.38;;
53052;SDS011;38934;52.690;6.184;2024-01-06T14:10:19;18.33;;;11.90;;
53052;SDS011;38934;52.690;6.184;2024-01-06T14:12:45;19.90;;;13.23;;
53052;SDS011;38934;52.690;6.184;2024-01-06T14:15:11;20.58;;;14.07;;
53052;SDS011;38934;52.690;6.184;2024-01-06T14:17:38;18.50;;;13.25;;
53052;SDS011;38934;52.690;6.184;2024-01-06T14:20:05;20.08;;;14.02;;